Time;durP1;ratioP1;P1;durP2;ratioP2;P2;SDS_P1;SDS_P2;PMS_P1;PMS_P2;Temp;Humidity;BMP_temperature;BMP_pressure;BME280_temperature;BME280_humidity;BME280_pressure;Samples;Min_cycle;Max_cycle;Signal;HPM_P1;HPM_P2
2022/09/05 00:02:34;;;;;;;5.80;3.58;;;20.60;94.90;;;;;;5058537;28;20223;-70
2022/09/05 00:05:28;;;;;;;4.40;3.10;;;20.60;95.10;;;;;;5049215;28;20192;-70
2022/09/05 00:08:02;;;;;;;5.07;3.47;;;20.50;95.10;;;;;;5046986;28;20693;-70
2022/09/05 00:10:39;;;;;;;3.83;3.30;;;20.50;95.00;;;;;;5049324;28;20199;-70
2022/09/05 00:13:12;;;;;;;3.45;3.15;;;20.50;94.90;;;;;;5049522;28;20194;-70
2022/09/05 00:15:48;;;;;;;3.60;3.30;;;20.50;95.00;;;;;;5049407;28;20195;-70
2022/09/05 00:18:34;;;;;;;7.82;3.10;;;20.50;95.00;;;;;;5049461;28;20192;-71
2022/09/05 00:21:13;;;;;;;3.58;3.28;;;20.40;94.90;;;;;;5048863;28;20256;-71
2022/09/05 00:23:53;;;;;;;3.53;3.22;;;20.50;95.10;;;;;;5048670;28;20224;-71
2022/09/05 00:26:35;;;;;;;5.87;3.30;;;20.50;94.90;;;;;;5039215;28;20288;-71
2022/09/05 00:29:16;;;;;;;3.53;3.22;;;20.40;94.90;;;;;;5028969;28;20197;-71
2022/09/05 00:31:53;;;;;;;3.67;3.40;;;20.40;94.90;;;;;;5038157;28;20554;-71
2022/09/05 00:34:34;;;;;;;3.70;3.45;;;20.40;95.00;;;;;;5048448;28;20314;-72
2022/09/05 00:37:01;;;;;;;3.88;3.42;;;20.40;95.00;;;;;;5049201;28;20284;-72
2022/09/05 00:39:32;;;;;;;4.03;3.63;;;20.40;95.00;;;;;;5048433;28;20231;-72
2022/09/05 00:42:03;;;;;;;3.70;3.40;;;20.40;95.20;;;;;;5048979;28;20226;-72
2022/09/05 00:44:34;;;;;;;6.35;3.42;;;20.40;94.90;;;;;;5048568;28;20669;-72
2022/09/05 00:47:09;;;;;;;4.15;3.25;;;20.30;94.90;;;;;;5048058;28;20196;-72
2022/09/05 00:49:42;;;;;;;3.70;3.20;;;20.30;95.00;;;;;;5048740;28;20192;-71
2022/09/05 00:52:15;;;;;;;4.37;3.40;;;20.30;95.00;;;;;;5048322;28;20263;-71
2022/09/05 00:54:58;;;;;;;3.37;3.07;;;20.30;95.10;;;;;;5042347;28;20204;-72
2022/09/05 00:57:46;;;;;;;3.83;3.47;;;20.30;95.00;;;;;;5028614;28;20212;-72
2022/09/05 01:00:16;;;;;;;5.33;3.50;;;20.30;95.00;;;;;;5041498;28;20705;-70
2022/09/05 01:03:29;;;;;;;3.60;3.30;;;20.30;94.90;;;;;;5048070;28;20204;-70
2022/09/05 01:06:17;;;;;;;5.90;3.77;;;20.20;95.10;;;;;;5017969;28;20216;-71
2022/09/05 01:09:10;;;;;;;3.80;3.50;;;20.20;95.20;;;;;;5031183;28;20226;-70
2022/09/05 01:11:48;;;;;;;5.20;3.70;;;20.10;95.20;;;;;;5048301;28;20196;-71
2022/09/05 01:14:31;;;;;;;4.73;3.43;;;20.10;95.10;;;;;;5047988;28;20212;-70
2022/09/05 01:17:39;;;;;;;4.00;3.60;;;20.10;95.20;;;;;;5047953;28;20310;-70
2022/09/05 01:20:34;;;;;;;3.93;3.63;;;20.10;95.20;;;;;;4990831;28;20234;-71
2022/09/05 01:23:23;;;;;;;4.77;3.60;;;20.10;95.20;;;;;;5024704;28;20215;-70
2022/09/05 01:26:01;;;;;;;4.20;3.80;;;20.00;95.30;;;;;;5026466;28;20843;-71
2022/09/05 01:28:35;;;;;;;4.03;3.70;;;20.00;95.50;;;;;;5028180;28;20201;-71
2022/09/05 01:31:14;;;;;;;5.03;3.60;;;20.00;95.40;;;;;;5027561;28;20197;-71
2022/09/05 01:33:49;;;;;;;5.10;3.40;;;20.00;95.40;;;;;;5028125;28;20433;-71
2022/09/05 01:36:32;;;;;;;4.03;3.73;;;19.90;95.40;;;;;;5034684;28;20201;-71
2022/09/05 01:39:04;;;;;;;3.87;3.47;;;19.90;95.50;;;;;;5027947;28;20743;-71
2022/09/05 01:41:39;;;;;;;3.70;3.40;;;19.80;95.60;;;;;;5027960;28;20197;-71
2022/09/05 01:44:37;;;;;;;3.77;3.47;;;19.80;95.60;;;;;;5028385;28;20280;-70
2022/09/05 01:47:19;;;;;;;6.33;3.60;;;19.80;95.60;;;;;;5027452;28;20826;-72
2022/09/05 01:49:57;;;;;;;4.00;3.70;;;19.80;95.70;;;;;;5027614;28;20679;-72
2022/09/05 01:52:45;;;;;;;4.13;3.83;;;19.80;95.70;;;;;;5035025;28;20243;-72
2022/09/05 01:55:25;;;;;;;4.87;4.00;;;19.70;95.80;;;;;;5054078;28;20246;-72
2022/09/05 01:57:59;;;;;;;4.43;4.00;;;19.70;95.90;;;;;;5047673;28;20196;-71
2022/09/05 02:00:34;;;;;;;3.90;3.60;;;19.60;95.90;;;;;;5047375;28;20314;-71
2022/09/05 02:03:16;;;;;;;3.67;3.37;;;19.60;96.00;;;;;;5047673;28;20195;-71
2022/09/05 02:06:08;;;;;;;4.30;3.90;;;19.60;96.00;;;;;;5047826;28;20189;-71
2022/09/05 02:09:13;;;;;;;3.43;3.13;;;19.60;96.20;;;;;;5047763;28;20614;-71
2022/09/05 02:11:46;;;;;;;4.10;3.47;;;19.50;96.10;;;;;;5027790;28;20205;-72
2022/09/05 02:14:29;;;;;;;4.30;3.90;;;19.60;96.30;;;;;;5027299;28;20201;-70
2022/09/05 02:17:15;;;;;;;4.27;3.47;;;19.60;96.20;;;;;;5027047;28;20691;-69
2022/09/05 02:19:47;;;;;;;4.00;3.70;;;19.60;96.20;;;;;;5027664;28;20259;-68
2022/09/05 02:22:21;;;;;;;3.93;3.63;;;19.50;96.30;;;;;;5045290;28;20228;-68
2022/09/05 02:24:54;;;;;;;4.40;3.90;;;19.50;96.30;;;;;;5044704;28;20580;-68
2022/09/05 02:27:28;;;;;;;5.10;3.67;;;19.50;96.40;;;;;;5044213;28;20206;-68
2022/09/05 02:30:07;;;;;;;6.87;3.87;;;19.50;96.30;;;;;;5044716;28;20192;-68
2022/09/05 02:32:47;;;;;;;4.60;4.00;;;19.50;96.40;;;;;;5027087;28;20251;-68
2022/09/05 02:35:22;;;;;;;4.27;3.63;;;19.40;96.40;;;;;;5025154;28;20201;-68
2022/09/05 02:37:51;;;;;;;4.10;3.73;;;19.30;96.60;;;;;;5025457;28;20193;-68
2022/09/05 02:40:25;;;;;;;7.33;3.90;;;19.30;96.70;;;;;;5024698;28;20233;-68
2022/09/05 02:42:59;;;;;;;5.67;4.33;;;19.30;96.70;;;;;;5026915;28;20201;-68
2022/09/05 02:45:36;;;;;;;5.17;4.13;;;19.20;96.80;;;;;;5044593;28;20203;-68
2022/09/05 02:48:13;;;;;;;4.50;3.97;;;19.20;96.80;;;;;;5044696;28;20278;-68
2022/09/05 02:50:49;;;;;;;4.07;3.77;;;19.20;96.80;;;;;;5041401;28;20208;-68
2022/09/05 02:53:19;;;;;;;4.17;3.77;;;19.20;96.90;;;;;;5037127;28;20236;-68
2022/09/05 02:56:23;;;;;;;5.07;3.93;;;19.20;96.90;;;;;;5067586;28;20211;-68
2022/09/05 02:59:00;;;;;;;4.60;4.13;;;19.10;96.90;;;;;;5069682;28;20223;-68
2022/09/05 03:01:44;;;;;;;4.73;3.93;;;19.10;97.00;;;;;;5070132;28;20196;-68
2022/09/05 03:04:25;;;;;;;6.07;4.00;;;19.10;97.00;;;;;;5069944;28;20258;-68
2022/09/05 03:07:06;;;;;;;4.50;4.03;;;19.10;96.90;;;;;;5070383;28;20196;-68
2022/09/05 03:09:49;;;;;;;4.77;3.97;;;19.10;97.00;;;;;;5070373;28;20196;-68
2022/09/05 03:12:49;;;;;;;4.80;4.10;;;19.00;97.00;;;;;;5070493;28;20597;-68
2022/09/05 03:15:50;;;;;;;4.17;3.73;;;19.00;97.10;;;;;;5069931;28;20665;-68
2022/09/05 03:18:56;;;;;;;4.03;3.73;;;18.90;97.30;;;;;;5070174;28;20194;-66
2022/09/05 03:21:59;;;;;;;4.50;4.07;;;18.90;97.40;;;;;;5055691;28;20208;-67
2022/09/05 03:25:05;;;;;;;6.27;4.30;;;18.80;97.40;;;;;;5060183;28;20294;-68
2022/09/05 03:28:19;;;;;;;5.97;4.20;;;18.80;97.50;;;;;;5062453;28;20222;-67
2022/09/05 03:31:07;;;;;;;4.37;3.97;;;18.80;97.50;;;;;;5049733;28;20215;-67
2022/09/05 03:33:53;;;;;;;6.07;4.47;;;18.80;97.40;;;;;;5050015;28;20204;-67
2022/09/05 03:36:55;;;;;;;4.13;3.73;;;18.80;97.50;;;;;;5049431;28;20193;-67
2022/09/05 03:39:52;;;;;;;5.10;4.17;;;18.90;97.50;;;;;;5038834;28;20224;-67
2022/09/05 03:42:43;;;;;;;6.27;4.10;;;18.80;97.60;;;;;;5030008;28;20203;-67
2022/09/05 03:45:34;;;;;;;4.73;3.77;;;18.80;97.70;;;;;;5042471;28;20243;-67
2022/09/05 03:48:27;;;;;;;3.97;3.60;;;18.70;97.70;;;;;;5058809;28;20668;-68
2022/09/05 03:51:09;;;;;;;4.13;3.83;;;18.70;98.10;;;;;;5046981;28;20685;-67
2022/09/05 03:53:57;;;;;;;4.17;3.80;;;18.60;97.90;;;;;;5052881;28;20301;-67
2022/09/05 03:57:17;;;;;;;5.17;3.80;;;18.60;98.00;;;;;;5068954;28;20660;-67
2022/09/05 03:59:53;;;;;;;5.20;4.10;;;18.60;98.20;;;;;;5069167;28;20231;-68
2022/09/05 04:02:24;;;;;;;5.37;3.77;;;18.50;98.30;;;;;;5068755;28;20672;-68
2022/09/05 04:04:59;;;;;;;4.77;4.20;;;18.50;98.30;;;;;;5069239;28;20241;-68
2022/09/05 04:07:32;;;;;;;4.27;3.90;;;18.50;98.40;;;;;;5069134;28;20215;-68
2022/09/05 04:10:04;;;;;;;5.40;3.73;;;18.50;98.40;;;;;;5069461;28;20200;-68
2022/09/05 04:12:36;;;;;;;4.30;3.90;;;18.50;98.40;;;;;;5069248;28;20191;-68
2022/09/05 04:15:07;;;;;;;4.97;4.33;;;18.50;98.40;;;;;;5069158;28;20187;-68
2022/09/05 04:17:37;;;;;;;4.67;4.27;;;18.50;98.40;;;;;;5069089;28;20657;-68
2022/09/05 04:20:11;;;;;;;4.97;3.97;;;18.50;98.40;;;;;;5065354;28;20600;-68
2022/09/05 04:23:04;;;;;;;3.93;3.63;;;18.50;98.40;;;;;;5049532;28;20254;-68
2022/09/05 04:25:45;;;;;;;7.67;4.17;;;18.50;98.40;;;;;;5047989;28;20205;-68
2022/09/05 04:28:35;;;;;;;4.97;4.23;;;18.50;98.40;;;;;;5049069;28;20200;-68
2022/09/05 04:31:12;;;;;;;5.33;3.73;;;18.50;98.40;;;;;;5048974;28;20211;-68
2022/09/05 04:33:46;;;;;;;5.03;3.97;;;18.40;98.50;;;;;;5048801;28;20661;-68
2022/09/05 04:36:19;;;;;;;5.37;3.90;;;18.40;98.50;;;;;;5048500;28;20204;-66
2022/09/05 04:39:05;;;;;;;7.17;4.10;;;18.40;98.40;;;;;;5043182;28;20672;-68
2022/09/05 04:41:38;;;;;;;7.33;3.77;;;18.30;98.50;;;;;;5042665;28;20224;-68
2022/09/05 04:44:11;;;;;;;3.80;3.50;;;18.30;98.60;;;;;;5057346;28;20693;-68
2022/09/05 04:46:43;;;;;;;4.83;3.53;;;18.20;98.60;;;;;;5048585;28;20219;-68
2022/09/05 04:49:14;;;;;;;4.33;3.93;;;18.20;98.80;;;;;;5048530;28;20280;-67
2022/09/05 04:52:28;;;;;;;6.00;3.57;;;18.20;98.80;;;;;;5048567;28;20274;-68
2022/09/05 04:55:00;;;;;;;4.83;3.63;;;18.30;98.80;;;;;;5059187;28;20207;-68
2022/09/05 04:57:34;;;;;;;4.17;3.77;;;18.30;98.80;;;;;;5068138;28;20302;-67
2022/09/05 05:00:07;;;;;;;6.47;3.87;;;18.30;98.80;;;;;;5068170;28;20229;-67
2022/09/05 05:02:37;;;;;;;4.30;3.90;;;18.40;98.80;;;;;;5068111;28;20253;-67
2022/09/05 05:05:09;;;;;;;5.40;3.97;;;18.40;99.10;;;;;;5067650;28;20198;-67
2022/09/05 05:07:49;;;;;;;5.43;3.33;;;18.40;98.70;;;;;;5068239;28;20251;-67
2022/09/05 05:10:22;;;;;;;5.13;3.73;;;18.40;98.70;;;;;;5067793;28;20199;-67
2022/09/05 05:13:17;;;;;;;4.27;3.87;;;18.40;98.70;;;;;;5067901;28;20198;-67
2022/09/05 05:15:53;;;;;;;5.57;3.73;;;18.40;98.90;;;;;;5054264;28;20211;-67
2022/09/05 05:18:26;;;;;;;5.53;3.00;;;18.50;99.00;;;;;;5067217;28;20191;-67
2022/09/05 05:20:59;;;;;;;6.50;3.37;;;18.50;98.90;;;;;;5052974;28;20728;-67
2022/09/05 05:23:35;;;;;;;5.87;3.47;;;18.50;98.80;;;;;;5049667;28;20205;-67
2022/09/05 05:26:08;;;;;;;3.63;3.33;;;18.50;98.90;;;;;;5067825;28;20191;-67
2022/09/05 05:28:58;;;;;;;5.30;3.77;;;18.50;99.10;;;;;;5067808;28;20202;-67
2022/09/05 05:31:30;;;;;;;15.30;4.20;;;18.50;99.00;;;;;;5063079;28;20204;-67
2022/09/05 05:34:00;;;;;;;5.23;3.03;;;18.50;98.90;;;;;;5067760;28;20196;-67
2022/09/05 05:36:30;;;;;;;4.93;3.70;;;18.50;99.10;;;;;;5067927;28;20239;-67
2022/09/05 05:39:02;;;;;;;4.83;3.60;;;18.40;99.00;;;;;;5062345;28;20196;-67
2022/09/05 05:41:37;;;;;;;4.03;3.03;;;18.50;99.20;;;;;;5053361;28;20603;-67
2022/09/05 05:44:11;;;;;;;6.47;3.43;;;18.40;99.20;;;;;;5047211;28;20198;-67
2022/09/05 05:46:42;;;;;;;4.73;3.10;;;18.40;99.30;;;;;;5047397;28;20204;-68
2022/09/05 05:49:38;;;;;;;3.87;3.37;;;18.40;99.30;;;;;;5047397;28;20199;-68
2022/09/05 05:52:22;;;;;;;4.70;3.50;;;18.40;99.50;;;;;;5046856;28;20710;-67
2022/09/05 05:54:56;;;;;;;6.50;3.27;;;18.40;99.80;;;;;;5061014;28;20207;-68
2022/09/05 05:58:01;;;;;;;4.27;3.47;;;18.40;99.80;;;;;;5067462;28;20489;-67
2022/09/05 06:00:47;;;;;;;6.00;3.70;;;18.40;99.60;;;;;;5066968;28;20234;-67
2022/09/05 06:04:11;;;;;;;5.27;3.47;;;18.40;99.60;;;;;;5067365;28;20208;-67
2022/09/05 06:06:52;;;;;;;4.70;3.30;;;18.40;99.80;;;;;;5005036;28;20194;-67
2022/09/05 06:10:09;;;;;;;5.10;2.80;;;18.40;99.90;;;;;;5005046;28;20714;-67
2022/09/05 06:13:10;;;;;;;6.07;3.83;;;18.50;99.90;;;;;;5067261;28;20208;-67
2022/09/05 06:16:13;;;;;;;5.50;3.63;;;18.60;99.90;;;;;;5065244;28;20223;-67
2022/09/05 06:19:20;;;;;;;3.70;3.30;;;18.60;99.90;;;;;;5037189;28;20211;-68
2022/09/05 06:22:12;;;;;;;5.13;3.57;;;18.60;99.90;;;;;;5021396;28;20232;-67
2022/09/05 06:25:13;;;;;;;7.03;3.10;;;18.70;99.90;;;;;;5025551;28;20371;-67
2022/09/05 06:27:53;;;;;;;8.53;3.47;;;18.70;99.90;;;;;;5066969;28;20290;-67
2022/09/05 06:30:21;;;;;;;8.20;3.53;;;18.80;99.90;;;;;;5068887;28;20202;-68
2022/09/05 06:33:02;;;;;;;5.60;3.73;;;18.80;99.90;;;;;;5067520;28;20240;-67
2022/09/05 06:35:46;;;;;;;5.00;3.17;;;18.90;99.90;;;;;;5055454;28;20733;-67
2022/09/05 06:38:33;;;;;;;3.47;3.23;;;18.90;99.90;;;;;;5051476;28;20212;-68
2022/09/05 06:41:19;;;;;;;7.63;3.33;;;19.00;99.70;;;;;;5031101;28;20229;-68
2022/09/05 06:44:15;;;;;;;5.53;3.27;;;19.00;99.90;;;;;;5030721;28;20225;-68
2022/09/05 06:46:42;;;;;;;3.40;3.10;;;19.00;99.90;;;;;;5031089;28;20275;-68
2022/09/05 06:49:16;;;;;;;5.73;2.90;;;19.00;99.90;;;;;;5032788;28;20578;-68
2022/09/05 06:52:11;;;;;;;5.70;3.40;;;19.10;99.90;;;;;;5050426;28;20244;-68
2022/09/05 06:55:15;;;;;;;5.43;2.90;;;19.10;99.90;;;;;;5050636;28;20208;-68
2022/09/05 06:58:13;;;;;;;5.03;3.17;;;19.10;99.90;;;;;;5030372;28;20575;-68
2022/09/05 07:00:45;;;;;;;3.60;3.20;;;19.10;99.90;;;;;;5030219;28;20760;-68
2022/09/05 07:03:45;;;;;;;3.50;3.20;;;19.00;99.90;;;;;;5044208;28;20231;-68
2022/09/05 07:06:19;;;;;;;3.77;2.60;;;19.10;99.90;;;;;;5050346;28;20197;-68
2022/09/05 07:08:52;;;;;;;5.80;2.90;;;19.20;99.90;;;;;;5050935;28;20188;-68
2022/09/05 07:11:22;;;;;;;4.17;3.10;;;19.20;99.90;;;;;;5050037;28;20262;-66
2022/09/05 07:14:00;;;;;;;5.53;3.17;;;19.30;99.90;;;;;;5050155;28;20203;-66
2022/09/05 07:16:40;;;;;;;8.83;3.57;;;19.30;99.90;;;;;;5044047;28;20575;-66
2022/09/05 07:19:25;;;;;;;8.27;3.40;;;19.30;99.90;;;;;;5044707;28;20237;-66
2022/09/05 07:22:20;;;;;;;6.40;3.07;;;19.40;99.90;;;;;;5030339;28;20311;-67
2022/09/05 07:24:49;;;;;;;3.50;3.00;;;19.40;99.90;;;;;;5040782;28;20211;-67
2022/09/05 07:27:33;;;;;;;3.47;2.97;;;19.50;99.90;;;;;;5069882;28;20208;-67
2022/09/05 07:30:02;;;;;;;3.43;3.00;;;19.50;99.90;;;;;;5058192;28;20207;-67
2022/09/05 07:32:31;;;;;;;4.77;3.40;;;19.50;99.90;;;;;;5058682;28;20215;-68
2022/09/05 07:35:01;;;;;;;3.43;3.13;;;19.60;99.90;;;;;;5049316;28;20673;-68
2022/09/05 07:37:36;;;;;;;9.00;3.23;;;19.60;99.90;;;;;;5050017;28;20231;-68
2022/09/05 07:40:08;;;;;;;5.80;2.90;;;19.70;99.90;;;;;;5049234;28;20659;-68
2022/09/05 07:42:41;;;;;;;3.90;3.57;;;19.70;99.90;;;;;;5049188;28;20224;-68
2022/09/05 07:45:12;;;;;;;7.73;3.20;;;19.70;99.90;;;;;;5049464;28;20204;-68
2022/09/05 07:47:47;;;;;;;5.90;3.10;;;19.70;99.90;;;;;;5049762;28;20228;-68
2022/09/05 07:50:15;;;;;;;2.93;2.70;;;19.70;99.90;;;;;;5049204;28;20239;-68
2022/09/05 07:52:45;;;;;;;5.37;2.80;;;19.70;99.90;;;;;;5049365;28;20250;-68
2022/09/05 07:55:24;;;;;;;7.90;3.10;;;19.80;99.90;;;;;;5065610;28;20685;-68
2022/09/05 07:57:53;;;;;;;5.23;3.17;;;19.90;99.90;;;;;;5069668;28;20191;-68
2022/09/05 08:00:23;;;;;;;3.33;2.80;;;20.00;99.90;;;;;;5068831;28;20811;-67
2022/09/05 08:02:51;;;;;;;3.70;3.40;;;20.10;99.90;;;;;;5069069;28;20721;-67
2022/09/05 08:05:20;;;;;;;6.40;2.93;;;20.10;99.90;;;;;;5062968;28;20297;-67
2022/09/05 08:07:51;;;;;;;5.13;3.00;;;20.10;99.90;;;;;;5049543;28;20204;-67
2022/09/05 08:10:22;;;;;;;7.90;2.90;;;20.10;99.90;;;;;;5048949;28;20208;-67
2022/09/05 08:12:54;;;;;;;5.63;2.97;;;20.10;99.90;;;;;;5049579;28;20193;-67
2022/09/05 08:15:26;;;;;;;6.40;3.47;;;20.10;99.90;;;;;;5048952;28;20250;-67
2022/09/05 08:18:05;;;;;;;5.40;2.80;;;20.20;99.90;;;;;;5049285;28;20215;-67
2022/09/05 08:20:41;;;;;;;5.38;3.30;;;20.30;99.90;;;;;;5049408;28;20619;-67
2022/09/05 08:23:18;;;;;;;5.13;3.28;;;20.40;99.90;;;;;;5049486;28;20192;-67
2022/09/05 08:25:53;;;;;;;5.90;3.20;;;20.50;99.90;;;;;;5036666;28;20218;-67
2022/09/05 08:28:25;;;;;;;3.17;2.88;;;20.60;99.90;;;;;;5056501;28;20680;-67
2022/09/05 08:31:01;;;;;;;3.40;3.10;;;20.70;99.90;;;;;;5049773;28;20575;-67
2022/09/05 08:33:34;;;;;;;3.95;3.50;;;20.80;99.90;;;;;;5049020;28;20196;-67
2022/09/05 08:36:07;;;;;;;3.20;2.90;;;20.90;99.80;;;;;;5048802;28;20189;-67
2022/09/05 08:38:35;;;;;;;3.60;3.30;;;20.90;99.70;;;;;;5048657;28;20193;-67
2022/09/05 08:41:12;;;;;;;6.78;3.67;;;21.00;99.30;;;;;;5048681;28;20236;-67
2022/09/05 08:43:49;;;;;;;5.20;3.58;;;21.00;99.50;;;;;;5048508;28;20559;-67
2022/09/05 08:46:27;;;;;;;3.63;2.90;;;21.00;99.60;;;;;;5048359;28;20203;-67
2022/09/05 08:49:28;;;;;;;3.40;3.10;;;21.00;99.90;;;;;;5048686;28;20196;-67
2022/09/05 08:51:59;;;;;;;3.10;2.90;;;21.00;99.60;;;;;;5048422;28;20239;-67
2022/09/05 08:54:34;;;;;;;4.78;3.13;;;21.00;99.60;;;;;;5057716;28;20215;-67
2022/09/05 08:57:12;;;;;;;4.30;2.80;;;21.00;99.70;;;;;;5067892;28;20225;-67
2022/09/05 08:59:44;;;;;;;6.13;3.30;;;21.20;99.50;;;;;;5068331;28;20191;-68
2022/09/05 09:02:48;;;;;;;4.13;3.50;;;21.20;99.30;;;;;;5067766;28;20227;-68
2022/09/05 09:05:26;;;;;;;3.50;3.25;;;21.20;99.30;;;;;;5058886;28;20219;-68
2022/09/05 09:07:57;;;;;;;3.78;3.15;;;21.30;99.50;;;;;;5048125;28;20196;-68
2022/09/05 09:10:36;;;;;;;4.25;3.50;;;21.40;99.40;;;;;;5047881;28;20207;-69
2022/09/05 09:13:19;;;;;;;3.65;3.35;;;21.50;99.80;;;;;;5048176;28;20234;-68
2022/09/05 09:15:52;;;;;;;4.03;3.10;;;21.50;99.40;;;;;;5047965;28;20203;-67
2022/09/05 09:18:20;;;;;;;7.53;3.40;;;21.50;99.40;;;;;;5047790;28;20200;-68
2022/09/05 09:20:52;;;;;;;8.25;3.38;;;21.60;99.90;;;;;;5047685;28;20659;-68
2022/09/05 09:23:39;;;;;;;5.63;3.67;;;21.70;99.80;;;;;;5048789;28;20207;-68
2022/09/05 09:26:14;;;;;;;3.45;3.22;;;21.80;99.70;;;;;;5056728;28;20675;-68
2022/09/05 09:28:51;;;;;;;4.07;3.30;;;21.90;99.70;;;;;;5048147;28;20196;-68
2022/09/05 09:31:28;;;;;;;3.88;3.10;;;22.00;99.30;;;;;;5047301;28;20219;-68
2022/09/05 09:34:09;;;;;;;4.60;3.10;;;22.10;99.30;;;;;;5047815;28;20198;-69
2022/09/05 09:37:13;;;;;;;7.70;3.20;;;22.20;99.10;;;;;;5047326;28;20204;-68
2022/09/05 09:39:59;;;;;;;3.88;3.40;;;22.30;99.30;;;;;;5037207;28;20567;-67
2022/09/05 09:42:36;;;;;;;3.50;3.20;;;22.40;99.10;;;;;;5047627;28;20227;-67
2022/09/05 09:45:28;;;;;;;3.55;3.22;;;22.40;98.40;;;;;;5047682;28;20192;-67
2022/09/05 09:48:16;;;;;;;5.72;3.55;;;22.40;98.70;;;;;;5048149;28;20229;-67
2022/09/05 09:50:58;;;;;;;3.33;3.10;;;22.50;98.80;;;;;;5047456;28;20196;-67
2022/09/05 09:53:39;;;;;;;8.48;3.42;;;22.60;98.70;;;;;;5048944;28;20235;-67
2022/09/05 09:56:43;;;;;;;4.18;2.72;;;22.60;98.90;;;;;;5067093;28;20227;-67
2022/09/05 09:59:43;;;;;;;3.13;2.90;;;22.80;98.70;;;;;;5066815;28;20206;-67
2022/09/05 10:02:28;;;;;;;5.15;3.28;;;22.90;98.90;;;;;;5052470;28;20239;-68
2022/09/05 10:05:22;;;;;;;5.55;3.20;;;22.90;97.90;;;;;;5046981;28;20219;-68
2022/09/05 10:08:13;;;;;;;3.42;3.05;;;23.00;98.00;;;;;;5047348;28;20235;-68
2022/09/05 10:11:08;;;;;;;3.63;3.33;;;23.00;97.80;;;;;;5047306;28;20208;-68
2022/09/05 10:14:03;;;;;;;3.35;3.05;;;23.10;98.20;;;;;;5047184;28;20207;-68
2022/09/05 10:17:09;;;;;;;5.63;3.35;;;23.10;98.00;;;;;;5047098;28;20192;-68
2022/09/05 10:20:07;;;;;;;5.47;3.10;;;23.20;98.40;;;;;;5047351;28;20215;-68
2022/09/05 10:22:47;;;;;;;3.95;3.33;;;23.40;98.20;;;;;;5039291;28;20232;-68
2022/09/05 10:25:27;;;;;;;3.20;3.00;;;23.50;98.20;;;;;;5063907;28;20210;-68
2022/09/05 10:28:07;;;;;;;3.83;3.05;;;23.60;97.80;;;;;;5067554;28;20218;-68
2022/09/05 10:30:51;;;;;;;3.50;3.20;;;23.70;97.60;;;;;;5059640;28;20252;-68
2022/09/05 10:33:34;;;;;;;3.13;2.90;;;23.80;97.10;;;;;;5047018;28;20203;-68
2022/09/05 10:36:11;;;;;;;3.35;2.95;;;23.80;97.00;;;;;;5047164;28;20852;-68
2022/09/05 10:38:43;;;;;;;3.97;3.25;;;24.00;97.40;;;;;;5046907;28;20192;-68
2022/09/05 10:41:14;;;;;;;3.85;2.92;;;24.00;96.60;;;;;;5046819;28;20188;-68
2022/09/05 10:43:49;;;;;;;3.17;2.92;;;24.00;96.70;;;;;;5047022;28;20215;-69
2022/09/05 10:46:26;;;;;;;8.40;3.33;;;24.00;96.80;;;;;;5046769;28;20195;-69
2022/09/05 10:48:54;;;;;;;4.18;2.97;;;24.10;97.00;;;;;;5046982;28;20200;-69
2022/09/05 10:51:29;;;;;;;3.15;2.65;;;24.20;96.60;;;;;;5046535;28;20235;-69
2022/09/05 10:54:15;;;;;;;2.92;2.50;;;24.30;96.90;;;;;;5053069;28;20242;-68
2022/09/05 10:56:46;;;;;;;7.55;2.85;;;24.40;96.20;;;;;;5066089;28;20310;-68
2022/09/05 10:59:23;;;;;;;3.17;2.67;;;24.40;96.00;;;;;;5046835;28;20806;-68
2022/09/05 11:02:03;;;;;;;3.55;2.75;;;24.50;95.90;;;;;;5046870;28;20227;-68
2022/09/05 11:04:45;;;;;;;2.60;2.50;;;24.60;95.80;;;;;;5046791;28;20196;-68
2022/09/05 11:07:14;;;;;;;2.42;2.33;;;24.70;96.60;;;;;;5046497;28;20202;-68
2022/09/05 11:10:01;;;;;;;5.93;3.10;;;25.00;96.30;;;;;;5046871;28;20251;-67
2022/09/05 11:12:53;;;;;;;4.03;3.13;;;25.00;96.00;;;;;;5046672;28;20629;-68
2022/09/05 11:15:30;;;;;;;4.85;2.38;;;25.20;95.40;;;;;;5043547;28;20685;-68
2022/09/05 11:18:03;;;;;;;3.67;2.58;;;25.20;94.20;;;;;;5044465;28;20232;-68
2022/09/05 11:20:46;;;;;;;3.33;2.60;;;25.20;93.80;;;;;;5030328;28;20197;-68
2022/09/05 11:23:18;;;;;;;2.60;2.40;;;25.10;93.90;;;;;;5029998;28;20224;-68
2022/09/05 11:25:46;;;;;;;2.60;2.40;;;25.20;94.30;;;;;;5049934;28;20200;-67
2022/09/05 11:28:17;;;;;;;2.83;2.63;;;25.20;94.20;;;;;;5050043;28;20208;-68
2022/09/05 11:30:52;;;;;;;3.10;2.80;;;25.30;94.50;;;;;;5049660;28;20207;-68
2022/09/05 11:33:44;;;;;;;4.18;2.53;;;25.50;95.00;;;;;;5049990;28;20196;-68
2022/09/05 11:36:18;;;;;;;3.20;3.00;;;25.60;94.80;;;;;;5049458;28;20207;-68
2022/09/05 11:39:12;;;;;;;2.60;2.50;;;25.60;94.60;;;;;;5049827;28;20207;-68
2022/09/05 11:42:13;;;;;;;2.72;2.42;;;25.60;94.00;;;;;;5049473;28;20246;-68
2022/09/05 11:45:01;;;;;;;4.80;2.90;;;25.70;94.40;;;;;;5049792;28;20211;-68
2022/09/05 11:48:18;;;;;;;5.63;3.00;;;25.80;94.20;;;;;;5049484;28;20207;-67
2022/09/05 11:51:25;;;;;;;4.45;2.80;;;26.00;94.30;;;;;;5036366;28;20580;-68
2022/09/05 11:54:29;;;;;;;3.08;2.88;;;26.20;93.90;;;;;;5055026;28;20213;-68
2022/09/05 11:57:17;;;;;;;3.08;2.70;;;26.30;94.10;;;;;;5054357;28;20243;-68
2022/09/05 12:00:07;;;;;;;86.82;11.27;;;26.30;93.60;;;;;;5046977;28;20209;-69
2022/09/05 12:03:10;;;;;;;3.50;2.80;;;26.40;93.90;;;;;;5049422;28;20236;-69
2022/09/05 12:06:03;;;;;;;3.38;2.97;;;26.40;93.50;;;;;;5049684;28;20212;-68
2022/09/05 12:08:38;;;;;;;2.95;2.70;;;26.50;93.90;;;;;;5049647;28;20266;-67
2022/09/05 12:11:24;;;;;;;2.50;2.40;;;26.60;93.30;;;;;;5049166;28;20231;-68
2022/09/05 12:13:59;;;;;;;3.25;3.05;;;26.70;93.50;;;;;;5058504;28;20681;-68
2022/09/05 12:16:46;;;;;;;3.42;3.20;;;26.70;93.20;;;;;;5048917;28;20542;-68
2022/09/05 12:19:25;;;;;;;3.42;2.83;;;26.70;93.00;;;;;;5049327;28;20200;-68
2022/09/05 12:22:26;;;;;;;3.00;2.88;;;26.80;93.40;;;;;;5049320;28;20196;-68
2022/09/05 12:25:11;;;;;;;5.43;3.00;;;26.90;93.60;;;;;;5049329;28;20222;-68
2022/09/05 12:27:40;;;;;;;3.75;3.10;;;27.00;93.40;;;;;;5048752;28;20677;-68
2022/09/05 12:30:09;;;;;;;4.85;3.00;;;27.10;93.60;;;;;;5045320;28;20319;-68
2022/09/05 12:32:48;;;;;;;4.93;3.45;;;27.20;93.10;;;;;;5029147;28;20217;-68
2022/09/05 12:35:38;;;;;;;3.28;3.08;;;27.30;92.70;;;;;;5028965;28;20560;-68
2022/09/05 12:38:25;;;;;;;4.68;2.80;;;27.30;92.80;;;;;;5028564;28;20663;-68
2022/09/05 12:40:57;;;;;;;5.05;2.92;;;27.30;92.70;;;;;;5048928;28;20203;-68
2022/09/05 12:43:27;;;;;;;3.63;2.70;;;27.30;92.80;;;;;;5048753;28;20226;-68
2022/09/05 12:45:58;;;;;;;4.35;3.30;;;27.30;92.10;;;;;;5048458;28;20208;-68
2022/09/05 12:48:30;;;;;;;4.43;3.17;;;27.30;92.00;;;;;;5048480;28;20635;-68
2022/09/05 12:51:01;;;;;;;3.42;3.10;;;27.20;91.80;;;;;;5048546;28;20368;-68
2022/09/05 12:53:42;;;;;;;6.05;2.97;;;27.20;92.40;;;;;;5050345;28;20232;-68
2022/09/05 12:56:25;;;;;;;3.35;3.15;;;27.20;92.00;;;;;;5067878;28;20731;-68
2022/09/05 12:58:55;;;;;;;3.17;2.97;;;27.30;92.40;;;;;;5068478;28;20236;-68
2022/09/05 13:01:27;;;;;;;3.40;3.20;;;27.40;92.40;;;;;;5068039;28;20215;-68
2022/09/05 13:03:59;;;;;;;3.22;3.00;;;27.40;91.20;;;;;;5047569;28;20277;-68
2022/09/05 13:06:31;;;;;;;5.68;2.78;;;27.40;91.20;;;;;;5043847;28;20212;-69
2022/09/05 13:09:05;;;;;;;3.85;3.55;;;27.50;91.90;;;;;;5048200;28;20208;-69
2022/09/05 13:11:41;;;;;;;3.40;3.10;;;27.50;91.80;;;;;;5048672;28;20689;-68
2022/09/05 13:14:25;;;;;;;3.22;3.03;;;27.60;92.10;;;;;;5044986;28;20196;-68
2022/09/05 13:16:54;;;;;;;3.40;3.13;;;27.70;91.90;;;;;;5040597;28;20631;-68
2022/09/05 13:19:29;;;;;;;3.63;3.17;;;27.80;91.40;;;;;;5039106;28;20208;-68
2022/09/05 13:21:59;;;;;;;3.03;2.72;;;27.80;90.90;;;;;;5039733;28;20207;-68
2022/09/05 13:24:32;;;;;;;5.03;3.15;;;27.80;91.70;;;;;;5048012;28;20214;-68
2022/09/05 13:27:06;;;;;;;6.25;3.13;;;28.00;91.30;;;;;;5034596;28;20219;-68
2022/09/05 13:29:47;;;;;;;4.72;3.58;;;28.10;91.00;;;;;;5038900;28;20212;-69
2022/09/05 13:32:16;;;;;;;3.17;2.90;;;28.00;91.20;;;;;;5026321;28;20286;-69
2022/09/05 13:34:46;;;;;;;3.38;3.03;;;28.20;91.60;;;;;;5025813;28;20689;-68
2022/09/05 13:37:19;;;;;;;3.78;2.90;;;28.30;91.50;;;;;;5025590;28;20651;-69
2022/09/05 13:39:52;;;;;;;7.60;3.30;;;28.20;91.10;;;;;;5039305;28;20568;-68
2022/09/05 13:42:22;;;;;;;41.72;6.10;;;28.20;91.50;;;;;;5045448;28;20197;-69
2022/09/05 13:44:54;;;;;;;5.45;3.40;;;28.20;91.90;;;;;;5045362;28;20207;-69
2022/09/05 13:47:58;;;;;;;4.07;3.35;;;28.20;91.00;;;;;;5029536;28;20209;-69
2022/09/05 13:50:28;;;;;;;4.05;3.22;;;28.30;90.90;;;;;;4995363;28;20195;-69
2022/09/05 13:52:59;;;;;;;3.10;2.70;;;28.40;90.70;;;;;;5044663;28;20246;-70
2022/09/05 13:55:38;;;;;;;5.55;2.60;;;28.40;91.70;;;;;;5063400;28;20231;-69
2022/09/05 13:58:09;;;;;;;4.50;3.30;;;28.50;91.30;;;;;;5065343;28;20195;-69